sensor_id;sensor_type;location;lat;lon;timestamp;pressure;altitude;pressure_sealevel;temperature;humidity
56196;BME280;42108;49.076;19.294;2022-07-10T00:00:55;62029.09;;;-146.16;100.00
56196;BME280;42108;49.076;19.294;2022-07-10T00:02:57;62029.09;;;-146.16;100.00
56196;BME280;42108;49.076;19.294;2022-07-10T00:04:58;62029.09;;;-146.16;100.00
56196;BME280;42108;49.076;19.294;2022-07-10T00:06:59;62029.09;;;-146.16;100.00
56196;BME280;42108;49.076;19.294;2022-07-10T00:09:02;62029.09;;;-146.16;100.00
56196;BME280;42108;49.076;19.294;2022-07-10T00:11:04;62029.09;;;-146.16;100.00
56196;BME280;42108;49.076;19.294;2022-07-10T00:13:05;62029.09;;;-146.16;100.00
56196;BME280;42108;49.076;19.294;2022-07-10T00:15:07;62029.09;;;-146.16;100.00
56196;BME280;42108;49.076;19.294;2022-07-10T00:17:08;62029.09;;;-146.16;100.00
56196;BME280;42108;49.076;19.294;2022-07-10T00:19:09;62029.09;;;-146.16;100.00
56196;BME280;42108;49.076;19.294;2022-07-10T00:21:10;62029.09;;;-146.16;100.00
56196;BME280;42108;49.076;19.294;2022-07-10T00:23:12;62029.09;;;-146.16;100.00
56196;BME280;42108;49.076;19.294;2022-07-10T00:25:13;62029.09;;;-146.16;100.00
56196;BME280;42108;49.076;19.294;2022-07-10T00:27:14;62029.09;;;-146.16;100.00
56196;BME280;42108;49.076;19.294;2022-07-10T00:29:15;62029.09;;;-146.16;100.00
56196;BME280;42108;49.076;19.294;2022-07-10T00:31:16;62029.09;;;-146.16;100.00
56196;BME280;42108;49.076;19.294;2022-07-10T00:33:17;62029.09;;;-146.16;100.00
56196;BME280;42108;49.076;19.294;2022-07-10T00:35:18;62029.09;;;-146.16;100.00
56196;BME280;42108;49.076;19.294;2022-07-10T00:37:19;62029.09;;;-146.16;100.00
56196;BME280;42108;49.076;19.294;2022-07-10T00:39:23;62029.09;;;-146.16;100.00
56196;BME280;42108;49.076;19.294;2022-07-10T00:41:25;62029.09;;;-146.16;100.00
56196;BME280;42108;49.076;19.294;2022-07-10T00:43:26;62029.09;;;-146.16;100.00
56196;BME280;42108;49.076;19.294;2022-07-10T00:45:27;62029.09;;;-146.16;100.00
56196;BME280;42108;49.076;19.294;2022-07-10T00:47:28;62029.09;;;-146.16;100.00
56196;BME280;42108;49.076;19.294;2022-07-10T00:49:29;62029.09;;;-146.16;100.00
56196;BME280;42108;49.076;19.294;2022-07-10T00:51:30;62029.09;;;-146.16;100.00
56196;BME280;42108;49.076;19.294;2022-07-10T00:53:31;62029.09;;;-146.16;100.00
56196;BME280;42108;49.076;19.294;2022-07-10T00:55:34;62029.09;;;-146.16;100.00
56196;BME280;42108;49.076;19.294;2022-07-10T00:57:36;62029.09;;;-146.16;100.00
56196;BME280;42108;49.076;19.294;2022-07-10T00:59:38;62029.09;;;-146.16;100.00
56196;BME280;42108;49.076;19.294;2022-07-10T01:01:39;62029.09;;;-146.16;100.00
56196;BME280;42108;49.076;19.294;2022-07-10T01:03:40;62029.09;;;-146.16;100.00
56196;BME280;42108;49.076;19.294;2022-07-10T01:05:41;62029.09;;;-146.16;100.00
56196;BME280;42108;49.076;19.294;2022-07-10T01:07:43;62029.09;;;-146.16;100.00
56196;BME280;42108;49.076;19.294;2022-07-10T01:09:44;62029.09;;;-146.16;100.00
56196;BME280;42108;49.076;19.294;2022-07-10T01:11:45;62029.09;;;-146.16;100.00
56196;BME280;42108;49.076;19.294;2022-07-10T01:13:46;62029.09;;;-146.16;100.00
56196;BME280;42108;49.076;19.294;2022-07-10T01:15:48;62029.09;;;-146.16;100.00
56196;BME280;42108;49.076;19.294;2022-07-10T01:17:49;62029.09;;;-146.16;100.00
56196;BME280;42108;49.076;19.294;2022-07-10T01:19:50;62029.09;;;-146.16;100.00
56196;BME280;42108;49.076;19.294;2022-07-10T01:21:51;62029.09;;;-146.16;100.00
56196;BME280;42108;49.076;19.294;2022-07-10T01:23:53;62029.09;;;-146.16;100.00
56196;BME280;42108;49.076;19.294;2022-07-10T01:25:54;62029.09;;;-146.16;100.00
56196;BME280;42108;49.076;19.294;2022-07-10T01:27:55;62029.09;;;-146.16;100.00
56196;BME280;42108;49.076;19.294;2022-07-10T01:29:57;62029.09;;;-146.16;100.00
56196;BME280;42108;49.076;19.294;2022-07-10T01:31:58;62029.09;;;-146.16;100.00
56196;BME280;42108;49.076;19.294;2022-07-10T01:34:04;62029.09;;;-146.16;100.00
56196;BME280;42108;49.076;19.294;2022-07-10T01:36:06;62029.09;;;-146.16;100.00
56196;BME280;42108;49.076;19.294;2022-07-10T01:38:08;62029.09;;;-146.16;100.00
56196;BME280;42108;49.076;19.294;2022-07-10T01:40:09;62029.09;;;-146.16;100.00
56196;BME280;42108;49.076;19.294;2022-07-10T01:42:10;62029.09;;;-146.16;100.00
56196;BME280;42108;49.076;19.294;2022-07-10T01:44:11;62029.09;;;-146.16;100.00
56196;BME280;42108;49.076;19.294;2022-07-10T01:46:12;62029.09;;;-146.16;100.00
56196;BME280;42108;49.076;19.294;2022-07-10T01:48:13;62029.09;;;-146.16;100.00
56196;BME280;42108;49.076;19.294;2022-07-10T01:50:14;62029.09;;;-146.16;100.00
56196;BME280;42108;49.076;19.294;2022-07-10T01:52:15;62029.09;;;-146.16;100.00
56196;BME280;42108;49.076;19.294;2022-07-10T01:54:16;62029.09;;;-146.16;100.00
56196;BME280;42108;49.076;19.294;2022-07-10T01:56:17;62029.09;;;-146.16;100.00
56196;BME280;42108;49.076;19.294;2022-07-10T01:58:18;62029.09;;;-146.16;100.00
56196;BME280;42108;49.076;19.294;2022-07-10T02:00:19;62029.09;;;-146.16;100.00
56196;BME280;42108;49.076;19.294;2022-07-10T02:02:20;62029.09;;;-146.16;100.00
56196;BME280;42108;49.076;19.294;2022-07-10T02:04:22;62029.09;;;-146.16;100.00
56196;BME280;42108;49.076;19.294;2022-07-10T02:06:42;62029.09;;;-146.16;100.00
56196;BME280;42108;49.076;19.294;2022-07-10T02:08:43;62029.09;;;-146.16;100.00
56196;BME280;42108;49.076;19.294;2022-07-10T02:10:46;62029.09;;;-146.16;100.00
56196;BME280;42108;49.076;19.294;2022-07-10T02:12:47;62029.09;;;-146.16;100.00
56196;BME280;42108;49.076;19.294;2022-07-10T02:14:48;62029.09;;;-146.16;100.00
56196;BME280;42108;49.076;19.294;2022-07-10T02:16:49;62029.09;;;-146.16;100.00
56196;BME280;42108;49.076;19.294;2022-07-10T02:18:50;62029.09;;;-146.16;100.00
56196;BME280;42108;49.076;19.294;2022-07-10T02:20:51;62029.09;;;-146.16;100.00
56196;BME280;42108;49.076;19.294;2022-07-10T02:22:52;62029.09;;;-146.16;100.00
56196;BME280;42108;49.076;19.294;2022-07-10T02:24:53;62029.09;;;-146.16;100.00
56196;BME280;42108;49.076;19.294;2022-07-10T02:26:54;62029.09;;;-146.16;100.00
56196;BME280;42108;49.076;19.294;2022-07-10T02:28:56;62029.09;;;-146.16;100.00
56196;BME280;42108;49.076;19.294;2022-07-10T02:30:57;62029.09;;;-146.16;100.00
56196;BME280;42108;49.076;19.294;2022-07-10T02:32:59;62029.09;;;-146.16;100.00
56196;BME280;42108;49.076;19.294;2022-07-10T02:35:00;62029.09;;;-146.16;100.00
56196;BME280;42108;49.076;19.294;2022-07-10T02:37:01;62029.09;;;-146.16;100.00
56196;BME280;42108;49.076;19.294;2022-07-10T02:39:02;62029.09;;;-146.16;100.00
56196;BME280;42108;49.076;19.294;2022-07-10T02:41:04;62029.09;;;-146.16;100.00
56196;BME280;42108;49.076;19.294;2022-07-10T02:43:05;62029.09;;;-146.16;100.00
56196;BME280;42108;49.076;19.294;2022-07-10T02:45:07;62029.09;;;-146.16;100.00
56196;BME280;42108;49.076;19.294;2022-07-10T02:47:09;62029.09;;;-146.16;100.00
56196;BME280;42108;49.076;19.294;2022-07-10T02:49:10;62029.09;;;-146.16;100.00
56196;BME280;42108;49.076;19.294;2022-07-10T02:51:11;62029.09;;;-146.16;100.00
56196;BME280;42108;49.076;19.294;2022-07-10T02:53:12;62029.09;;;-146.16;100.00
56196;BME280;42108;49.076;19.294;2022-07-10T02:55:13;62029.09;;;-146.16;100.00
56196;BME280;42108;49.076;19.294;2022-07-10T02:57:14;62029.09;;;-146.16;100.00
56196;BME280;42108;49.076;19.294;2022-07-10T02:59:15;62029.09;;;-146.16;100.00
56196;BME280;42108;49.076;19.294;2022-07-10T03:01:17;62029.09;;;-146.16;100.00
56196;BME280;42108;49.076;19.294;2022-07-10T03:03:18;62029.09;;;-146.16;100.00
56196;BME280;42108;49.076;19.294;2022-07-10T03:05:20;62029.09;;;-146.16;100.00
56196;BME280;42108;49.076;19.294;2022-07-10T03:07:21;62029.09;;;-146.16;100.00
56196;BME280;42108;49.076;19.294;2022-07-10T03:09:22;62029.09;;;-146.16;100.00
56196;BME280;42108;49.076;19.294;2022-07-10T03:11:23;62029.09;;;-146.16;100.00
56196;BME280;42108;49.076;19.294;2022-07-10T03:13:24;62029.09;;;-146.16;100.00
56196;BME280;42108;49.076;19.294;2022-07-10T03:15:25;62029.09;;;-146.16;100.00
56196;BME280;42108;49.076;19.294;2022-07-10T03:17:26;62029.09;;;-146.16;100.00
56196;BME280;42108;49.076;19.294;2022-07-10T03:19:27;62029.09;;;-146.16;100.00
56196;BME280;42108;49.076;19.294;2022-07-10T03:21:29;62029.09;;;-146.16;100.00
56196;BME280;42108;49.076;19.294;2022-07-10T03:23:31;62029.09;;;-146.16;100.00
56196;BME280;42108;49.076;19.294;2022-07-10T03:25:32;62029.09;;;-146.16;100.00
56196;BME280;42108;49.076;19.294;2022-07-10T03:27:34;62029.09;;;-146.16;100.00
56196;BME280;42108;49.076;19.294;2022-07-10T03:29:35;62029.09;;;-146.16;100.00
56196;BME280;42108;49.076;19.294;2022-07-10T03:31:36;62029.09;;;-146.16;100.00
56196;BME280;42108;49.076;19.294;2022-07-10T03:33:37;62029.09;;;-146.16;100.00
56196;BME280;42108;49.076;19.294;2022-07-10T03:35:39;62029.09;;;-146.16;100.00
56196;BME280;42108;49.076;19.294;2022-07-10T03:37:40;62029.09;;;-146.16;100.00
56196;BME280;42108;49.076;19.294;2022-07-10T03:39:41;62029.09;;;-146.16;100.00
56196;BME280;42108;49.076;19.294;2022-07-10T03:41:42;62029.09;;;-146.16;100.00
56196;BME280;42108;49.076;19.294;2022-07-10T03:43:43;62029.09;;;-146.16;100.00
56196;BME280;42108;49.076;19.294;2022-07-10T03:45:44;62029.09;;;-146.16;100.00
56196;BME280;42108;49.076;19.294;2022-07-10T03:47:46;62029.09;;;-146.16;100.00
56196;BME280;42108;49.076;19.294;2022-07-10T03:49:47;62029.09;;;-146.16;100.00
56196;BME280;42108;49.076;19.294;2022-07-10T03:51:48;62029.09;;;-146.16;100.00
56196;BME280;42108;49.076;19.294;2022-07-10T03:53:49;62029.09;;;-146.16;100.00
56196;BME280;42108;49.076;19.294;2022-07-10T03:55:50;62029.09;;;-146.16;100.00
56196;BME280;42108;49.076;19.294;2022-07-10T03:57:51;62029.09;;;-146.16;100.00
56196;BME280;42108;49.076;19.294;2022-07-10T03:59:55;62029.09;;;-146.16;100.00
56196;BME280;42108;49.076;19.294;2022-07-10T04:01:56;62029.09;;;-146.16;100.00
56196;BME280;42108;49.076;19.294;2022-07-10T04:03:57;62029.09;;;-146.16;100.00
56196;BME280;42108;49.076;19.294;2022-07-10T04:05:58;62029.09;;;-146.16;100.00
56196;BME280;42108;49.076;19.294;2022-07-10T04:08:00;62029.09;;;-146.16;100.00
56196;BME280;42108;49.076;19.294;2022-07-10T04:10:03;62029.09;;;-146.16;100.00
56196;BME280;42108;49.076;19.294;2022-07-10T04:12:04;62029.09;;;-146.16;100.00
56196;BME280;42108;49.076;19.294;2022-07-10T04:14:05;62029.09;;;-146.16;100.00
56196;BME280;42108;49.076;19.294;2022-07-10T04:16:06;62029.09;;;-146.16;100.00
56196;BME280;42108;49.076;19.294;2022-07-10T04:18:10;62029.09;;;-146.16;100.00
56196;BME280;42108;49.076;19.294;2022-07-10T04:20:12;62029.09;;;-146.16;100.00
56196;BME280;42108;49.076;19.294;2022-07-10T04:22:13;62029.09;;;-146.16;100.00
56196;BME280;42108;49.076;19.294;2022-07-10T04:24:14;62029.09;;;-146.16;100.00
56196;BME280;42108;49.076;19.294;2022-07-10T04:26:15;62029.09;;;-146.16;100.00
56196;BME280;42108;49.076;19.294;2022-07-10T04:28:16;62029.09;;;-146.16;100.00
56196;BME280;42108;49.076;19.294;2022-07-10T04:30:17;62029.09;;;-146.16;100.00
56196;BME280;42108;49.076;19.294;2022-07-10T04:32:18;62029.09;;;-146.16;100.00
56196;BME280;42108;49.076;19.294;2022-07-10T04:34:20;62029.09;;;-146.16;100.00
56196;BME280;42108;49.076;19.294;2022-07-10T04:36:21;62029.09;;;-146.16;100.00
56196;BME280;42108;49.076;19.294;2022-07-10T04:38:22;62029.09;;;-146.16;100.00
56196;BME280;42108;49.076;19.294;2022-07-10T04:40:23;62029.09;;;-146.16;100.00
56196;BME280;42108;49.076;19.294;2022-07-10T04:42:24;62029.09;;;-146.16;100.00
56196;BME280;42108;49.076;19.294;2022-07-10T04:44:25;62029.09;;;-146.16;100.00
56196;BME280;42108;49.076;19.294;2022-07-10T04:46:26;62029.09;;;-146.16;100.00
56196;BME280;42108;49.076;19.294;2022-07-10T04:48:27;62029.09;;;-146.16;100.00
56196;BME280;42108;49.076;19.294;2022-07-10T04:50:28;62029.09;;;-146.16;100.00
56196;BME280;42108;49.076;19.294;2022-07-10T04:52:29;62029.09;;;-146.16;100.00
56196;BME280;42108;49.076;19.294;2022-07-10T04:54:30;62029.09;;;-146.16;100.00
56196;BME280;42108;49.076;19.294;2022-07-10T04:56:31;62029.09;;;-146.16;100.00
56196;BME280;42108;49.076;19.294;2022-07-10T04:58:32;62029.09;;;-146.16;100.00
56196;BME280;42108;49.076;19.294;2022-07-10T05:00:33;62029.09;;;-146.16;100.00
56196;BME280;42108;49.076;19.294;2022-07-10T05:02:34;62029.09;;;-146.16;100.00
56196;BME280;42108;49.076;19.294;2022-07-10T05:04:35;62029.09;;;-146.16;100.00
56196;BME280;42108;49.076;19.294;2022-07-10T05:06:36;62029.09;;;-146.16;100.00
56196;BME280;42108;49.076;19.294;2022-07-10T05:08:37;62029.09;;;-146.16;100.00
56196;BME280;42108;49.076;19.294;2022-07-10T05:10:39;62029.09;;;-146.16;100.00
56196;BME280;42108;49.076;19.294;2022-07-10T05:12:40;62029.09;;;-146.16;100.00
56196;BME280;42108;49.076;19.294;2022-07-10T05:14:41;62029.09;;;-146.16;100.00
56196;BME280;42108;49.076;19.294;2022-07-10T05:16:42;62029.09;;;-146.16;100.00
56196;BME280;42108;49.076;19.294;2022-07-10T05:18:44;62029.09;;;-146.16;100.00
56196;BME280;42108;49.076;19.294;2022-07-10T05:20:45;62029.09;;;-146.16;100.00
56196;BME280;42108;49.076;19.294;2022-07-10T05:22:48;62029.09;;;-146.16;100.00
56196;BME280;42108;49.076;19.294;2022-07-10T05:24:49;62029.09;;;-146.16;100.00
56196;BME280;42108;49.076;19.294;2022-07-10T05:26:50;62029.09;;;-146.16;100.00
56196;BME280;42108;49.076;19.294;2022-07-10T05:28:51;62029.09;;;-146.16;100.00
56196;BME280;42108;49.076;19.294;2022-07-10T05:30:52;62029.09;;;-146.16;100.00
56196;BME280;42108;49.076;19.294;2022-07-10T05:32:53;62029.09;;;-146.16;100.00
56196;BME280;42108;49.076;19.294;2022-07-10T05:34:57;62029.09;;;-146.16;100.00
56196;BME280;42108;49.076;19.294;2022-07-10T05:36:59;62029.09;;;-146.16;100.00
56196;BME280;42108;49.076;19.294;2022-07-10T05:39:00;62029.09;;;-146.16;100.00
56196;BME280;42108;49.076;19.294;2022-07-10T05:41:01;62029.09;;;-146.16;100.00
56196;BME280;42108;49.076;19.294;2022-07-10T05:43:02;62029.09;;;-146.16;100.00
56196;BME280;42108;49.076;19.294;2022-07-10T05:45:04;62029.09;;;-146.16;100.00
56196;BME280;42108;49.076;19.294;2022-07-10T05:47:06;62029.09;;;-146.16;100.00
56196;BME280;42108;49.076;19.294;2022-07-10T05:49:07;62029.09;;;-146.16;100.00
56196;BME280;42108;49.076;19.294;2022-07-10T05:51:08;62029.09;;;-146.16;100.00
56196;BME280;42108;49.076;19.294;2022-07-10T05:53:10;62029.09;;;-146.16;100.00
56196;BME280;42108;49.076;19.294;2022-07-10T05:55:11;62029.09;;;-146.16;100.00
56196;BME280;42108;49.076;19.294;2022-07-10T05:57:12;62029.09;;;-146.16;100.00
56196;BME280;42108;49.076;19.294;2022-07-10T05:59:13;62029.09;;;-146.16;100.00
56196;BME280;42108;49.076;19.294;2022-07-10T06:01:14;62029.09;;;-146.16;100.00
56196;BME280;42108;49.076;19.294;2022-07-10T06:03:15;62029.09;;;-146.16;100.00
56196;BME280;42108;49.076;19.294;2022-07-10T06:05:17;62029.09;;;-146.16;100.00
56196;BME280;42108;49.076;19.294;2022-07-10T06:07:18;62029.09;;;-146.16;100.00
56196;BME280;42108;49.076;19.294;2022-07-10T06:09:19;62029.09;;;-146.16;100.00
56196;BME280;42108;49.076;19.294;2022-07-10T06:11:20;62029.09;;;-146.16;100.00
56196;BME280;42108;49.076;19.294;2022-07-10T06:13:21;62029.09;;;-146.16;100.00
56196;BME280;42108;49.076;19.294;2022-07-10T06:15:22;62029.09;;;-146.16;100.00
56196;BME280;42108;49.076;19.294;2022-07-10T06:17:23;62029.09;;;-146.16;100.00
56196;BME280;42108;49.076;19.294;2022-07-10T06:19:24;62029.09;;;-146.16;100.00
56196;BME280;42108;49.076;19.294;2022-07-10T06:21:25;62029.09;;;-146.16;100.00
56196;BME280;42108;49.076;19.294;2022-07-10T06:23:26;62029.09;;;-146.16;100.00
56196;BME280;42108;49.076;19.294;2022-07-10T06:25:28;62029.09;;;-146.16;100.00
56196;BME280;42108;49.076;19.294;2022-07-10T06:27:30;62029.09;;;-146.16;100.00
56196;BME280;42108;49.076;19.294;2022-07-10T06:29:32;62029.09;;;-146.16;100.00
56196;BME280;42108;49.076;19.294;2022-07-10T06:31:33;62029.09;;;-146.16;100.00
56196;BME280;42108;49.076;19.294;2022-07-10T06:33:34;62029.09;;;-146.16;100.00
56196;BME280;42108;49.076;19.294;2022-07-10T06:35:36;62029.09;;;-146.16;100.00
56196;BME280;42108;49.076;19.294;2022-07-10T06:37:37;62029.09;;;-146.16;100.00
56196;BME280;42108;49.076;19.294;2022-07-10T06:39:38;62029.09;;;-146.16;100.00
56196;BME280;42108;49.076;19.294;2022-07-10T06:41:39;62029.09;;;-146.16;100.00
56196;BME280;42108;49.076;19.294;2022-07-10T06:43:40;62029.09;;;-146.16;100.00
56196;BME280;42108;49.076;19.294;2022-07-10T06:45:41;62029.09;;;-146.16;100.00
56196;BME280;42108;49.076;19.294;2022-07-10T06:47:43;62029.09;;;-146.16;100.00
56196;BME280;42108;49.076;19.294;2022-07-10T06:50:04;62029.09;;;-146.16;100.00
56196;BME280;42108;49.076;19.294;2022-07-10T06:52:06;62029.09;;;-146.16;100.00
56196;BME280;42108;49.076;19.294;2022-07-10T06:54:07;62029.09;;;-146.16;100.00
56196;BME280;42108;49.076;19.294;2022-07-10T06:56:08;62029.09;;;-146.16;100.00
56196;BME280;42108;49.076;19.294;2022-07-10T06:58:09;62029.09;;;-146.16;100.00
56196;BME280;42108;49.076;19.294;2022-07-10T07:00:10;62029.09;;;-146.16;100.00
56196;BME280;42108;49.076;19.294;2022-07-10T07:02:12;62029.09;;;-146.16;100.00
56196;BME280;42108;49.076;19.294;2022-07-10T07:04:13;62029.09;;;-146.16;100.00
56196;BME280;42108;49.076;19.294;2022-07-10T07:06:14;62029.09;;;-146.16;100.00
56196;BME280;42108;49.076;19.294;2022-07-10T07:08:15;62029.09;;;-146.16;100.00
56196;BME280;42108;49.076;19.294;2022-07-10T07:10:17;62029.09;;;-146.16;100.00
56196;BME280;42108;49.076;19.294;2022-07-10T07:12:18;62029.09;;;-146.16;100.00
56196;BME280;42108;49.076;19.294;2022-07-10T07:14:19;62029.09;;;-146.16;100.00
56196;BME280;42108;49.076;19.294;2022-07-10T07:16:20;62029.09;;;-146.16;100.00
56196;BME280;42108;49.076;19.294;2022-07-10T07:18:29;62029.09;;;-146.16;100.00
56196;BME280;42108;49.076;19.294;2022-07-10T07:20:34;62029.09;;;-146.16;100.00
56196;BME280;42108;49.076;19.294;2022-07-10T07:22:54;62029.09;;;-146.16;100.00
56196;BME280;42108;49.076;19.294;2022-07-10T07:25:11;62029.09;;;-146.16;100.00
56196;BME280;42108;49.076;19.294;2022-07-10T07:27:12;62029.09;;;-146.16;100.00
56196;BME280;42108;49.076;19.294;2022-07-10T07:29:14;62029.09;;;-146.16;100.00
56196;BME280;42108;49.076;19.294;2022-07-10T07:31:15;62029.09;;;-146.16;100.00
56196;BME280;42108;49.076;19.294;2022-07-10T07:33:18;62029.09;;;-146.16;100.00
56196;BME280;42108;49.076;19.294;2022-07-10T07:35:19;62029.09;;;-146.16;100.00
56196;BME280;42108;49.076;19.294;2022-07-10T07:37:20;62029.09;;;-146.16;100.00
56196;BME280;42108;49.076;19.294;2022-07-10T07:39:24;62029.09;;;-146.16;100.00
56196;BME280;42108;49.076;19.294;2022-07-10T07:41:26;62029.09;;;-146.16;100.00
56196;BME280;42108;49.076;19.294;2022-07-10T07:43:27;62029.09;;;-146.16;100.00
56196;BME280;42108;49.076;19.294;2022-07-10T07:45:28;62029.09;;;-146.16;100.00
56196;BME280;42108;49.076;19.294;2022-07-10T07:47:30;62029.09;;;-146.16;100.00
56196;BME280;42108;49.076;19.294;2022-07-10T07:49:31;62029.09;;;-146.16;100.00
56196;BME280;42108;49.076;19.294;2022-07-10T07:51:32;62029.09;;;-146.16;100.00
56196;BME280;42108;49.076;19.294;2022-07-10T07:53:34;62029.09;;;-146.16;100.00
56196;BME280;42108;49.076;19.294;2022-07-10T07:55:35;62029.09;;;-146.16;100.00
56196;BME280;42108;49.076;19.294;2022-07-10T07:57:37;62029.09;;;-146.16;100.00
56196;BME280;42108;49.076;19.294;2022-07-10T07:59:38;62029.09;;;-146.16;100.00
56196;BME280;42108;49.076;19.294;2022-07-10T08:01:40;62029.09;;;-146.16;100.00
56196;BME280;42108;49.076;19.294;2022-07-10T08:03:41;62029.09;;;-146.16;100.00
56196;BME280;42108;49.076;19.294;2022-07-10T08:05:42;62029.09;;;-146.16;100.00
56196;BME280;42108;49.076;19.294;2022-07-10T08:07:49;62029.09;;;-146.16;100.00
56196;BME280;42108;49.076;19.294;2022-07-10T08:09:50;62029.09;;;-146.16;100.00
56196;BME280;42108;49.076;19.294;2022-07-10T08:11:52;62029.09;;;-146.16;100.00
56196;BME280;42108;49.076;19.294;2022-07-10T08:13:53;62029.09;;;-146.16;100.00
56196;BME280;42108;49.076;19.294;2022-07-10T08:15:54;62029.09;;;-146.16;100.00
56196;BME280;42108;49.076;19.294;2022-07-10T08:17:57;62029.09;;;-146.16;100.00
56196;BME280;42108;49.076;19.294;2022-07-10T08:19:58;62029.09;;;-146.16;100.00
56196;BME280;42108;49.076;19.294;2022-07-10T08:21:59;62029.09;;;-146.16;100.00
56196;BME280;42108;49.076;19.294;2022-07-10T08:24:00;62029.09;;;-146.16;100.00
56196;BME280;42108;49.076;19.294;2022-07-10T08:26:02;62029.09;;;-146.16;100.00
56196;BME280;42108;49.076;19.294;2022-07-10T08:28:03;62029.09;;;-146.16;100.00
56196;BME280;42108;49.076;19.294;2022-07-10T08:30:07;62029.09;;;-146.16;100.00
56196;BME280;42108;49.076;19.294;2022-07-10T08:32:09;62029.09;;;-146.16;100.00
56196;BME280;42108;49.076;19.294;2022-07-10T08:34:11;62029.09;;;-146.16;100.00
56196;BME280;42108;49.076;19.294;2022-07-10T08:36:12;62029.09;;;-146.16;100.00
56196;BME280;42108;49.076;19.294;2022-07-10T08:38:13;62029.09;;;-146.16;100.00
56196;BME280;42108;49.076;19.294;2022-07-10T08:40:15;95466.44;;;18.12;94.20
56196;BME280;42108;49.076;19.294;2022-07-10T08:42:17;95460.16;;;18.43;98.62
56196;BME280;42108;49.076;19.294;2022-07-10T08:44:19;95472.31;;;18.66;95.49
56196;BME280;42108;49.076;19.294;2022-07-10T08:46:20;95462.06;;;18.25;93.25
56196;BME280;42108;49.076;19.294;2022-07-10T08:48:23;95456.19;;;17.97;92.01
56196;BME280;42108;49.076;19.294;2022-07-10T08:50:25;95453.22;;;17.98;96.22
56196;BME280;42108;49.076;19.294;2022-07-10T08:52:43;95446.25;;;17.97;89.18
56196;BME280;42108;49.076;19.294;2022-07-10T08:54:45;95454.13;;;17.85;88.79
56196;BME280;42108;49.076;19.294;2022-07-10T08:56:47;95452.25;;;17.94;87.33
56196;BME280;42108;49.076;19.294;2022-07-10T08:58:49;95450.44;;;17.72;89.79
56196;BME280;42108;49.076;19.294;2022-07-10T09:00:53;95452.16;;;17.68;87.18
56196;BME280;42108;49.076;19.294;2022-07-10T09:02:54;95448.31;;;17.52;87.88
56196;BME280;42108;49.076;19.294;2022-07-10T09:04:56;95450.13;;;17.65;86.82
56196;BME280;42108;49.076;19.294;2022-07-10T09:06:57;95443.31;;;17.59;87.53
56196;BME280;42108;49.076;19.294;2022-07-10T09:09:02;95448.44;;;17.38;84.23
56196;BME280;42108;49.076;19.294;2022-07-10T09:11:14;95456.31;;;17.34;87.39
56196;BME280;42108;49.076;19.294;2022-07-10T09:13:15;95456.59;;;17.24;87.14
56196;BME280;42108;49.076;19.294;2022-07-10T09:15:19;95456.59;;;17.33;88.88
56196;BME280;42108;49.076;19.294;2022-07-10T09:17:21;95453.03;;;17.46;88.52
56196;BME280;42108;49.076;19.294;2022-07-10T09:19:26;95455.19;;;17.75;86.26
56196;BME280;42108;49.076;19.294;2022-07-10T09:21:32;95449.75;;;18.06;88.20
56196;BME280;42108;49.076;19.294;2022-07-10T09:23:34;95451.34;;;18.34;86.00
56196;BME280;42108;49.076;19.294;2022-07-10T09:25:35;95453.22;;;18.16;79.21
56196;BME280;42108;49.076;19.294;2022-07-10T09:27:53;95445.50;;;18.49;79.31
56196;BME280;42108;49.076;19.294;2022-07-10T09:29:55;95441.38;;;18.86;78.28
56196;BME280;42108;49.076;19.294;2022-07-10T09:31:59;95440.75;;;18.46;79.43
56196;BME280;42108;49.076;19.294;2022-07-10T09:34:01;95436.38;;;18.33;81.46
56196;BME280;42108;49.076;19.294;2022-07-10T09:36:11;95430.34;;;18.62;78.85
56196;BME280;42108;49.076;19.294;2022-07-10T09:38:12;95434.28;;;18.73;78.68
56196;BME280;42108;49.076;19.294;2022-07-10T09:40:13;95433.91;;;19.01;81.58
56196;BME280;42108;49.076;19.294;2022-07-10T09:42:39;95432.16;;;19.13;80.84
56196;BME280;42108;49.076;19.294;2022-07-10T09:44:40;95419.38;;;19.49;78.53
56196;BME280;42108;49.076;19.294;2022-07-10T09:46:41;95427.75;;;19.86;79.27
56196;BME280;42108;49.076;19.294;2022-07-10T09:48:42;95426.19;;;20.27;69.79
56196;BME280;42108;49.076;19.294;2022-07-10T09:50:44;95413.78;;;20.34;70.14
56196;BME280;42108;49.076;19.294;2022-07-10T09:52:46;95429.09;;;20.43;67.26
56196;BME280;42108;49.076;19.294;2022-07-10T09:54:47;95423.03;;;20.46;67.92
56196;BME280;42108;49.076;19.294;2022-07-10T09:56:49;95414.38;;;20.61;67.22
56196;BME280;42108;49.076;19.294;2022-07-10T09:58:57;95410.94;;;20.73;66.75
56196;BME280;42108;49.076;19.294;2022-07-10T10:01:00;95402.28;;;20.46;67.30
56196;BME280;42108;49.076;19.294;2022-07-10T10:03:04;95400.34;;;20.34;66.71
56196;BME280;42108;49.076;19.294;2022-07-10T10:05:05;95398.13;;;20.36;65.98
56196;BME280;42108;49.076;19.294;2022-07-10T10:07:11;95413.47;;;20.36;62.07
56196;BME280;42108;49.076;19.294;2022-07-10T10:09:40;95388.72;;;19.80;53.61
56196;BME280;42108;49.076;19.294;2022-07-10T10:11:44;95395.66;;;19.51;58.14
56196;BME280;42108;49.076;19.294;2022-07-10T10:13:46;95390.84;;;19.36;58.13
56196;BME280;42108;49.076;19.294;2022-07-10T10:15:51;95393.22;;;18.99;62.17
56196;BME280;42108;49.076;19.294;2022-07-10T10:17:53;95394.22;;;18.77;62.06